createdAt,value
2023-03-08T00:00:44.332Z,2.90
2023-03-08T00:03:14.790Z,5.10
2023-03-08T00:05:42.199Z,2.80
2023-03-08T00:08:09.144Z,2.80
2023-03-08T00:10:36.866Z,2.80
2023-03-08T00:13:03.760Z,2.90
2023-03-08T00:15:30.714Z,2.90
2023-03-08T00:17:57.649Z,2.90
2023-03-08T00:20:24.635Z,3.00
2023-03-08T00:22:51.733Z,2.90
2023-03-08T00:25:18.902Z,2.90
2023-03-08T00:27:46.020Z,3.00
2023-03-08T00:30:14.317Z,3.00
2023-03-08T00:32:41.413Z,3.00
2023-03-08T00:35:09.260Z,3.00
2023-03-08T00:37:36.254Z,3.00
2023-03-08T00:40:04.124Z,3.00
2023-03-08T00:42:31.000Z,3.00
2023-03-08T00:44:57.840Z,3.00
2023-03-08T00:47:24.760Z,3.10
2023-03-08T00:49:51.727Z,3.00
2023-03-08T00:52:18.723Z,3.00
2023-03-08T00:54:45.626Z,2.90
2023-03-08T00:57:12.487Z,3.00
2023-03-08T00:59:40.464Z,3.00
2023-03-08T01:02:07.381Z,3.00
2023-03-08T01:04:34.562Z,3.00
2023-03-08T01:07:01.554Z,3.00
2023-03-08T01:09:28.458Z,3.00
2023-03-08T01:11:55.385Z,3.00
2023-03-08T01:14:22.385Z,5.50
2023-03-08T01:16:49.380Z,3.00
2023-03-08T01:19:16.627Z,3.00
2023-03-08T01:21:43.525Z,2.90
2023-03-08T01:24:10.469Z,3.00
2023-03-08T01:26:37.354Z,3.00
2023-03-08T01:29:04.282Z,3.00
2023-03-08T01:31:31.630Z,2.90
2023-03-08T01:33:58.965Z,3.00
2023-03-08T01:36:27.862Z,3.00
2023-03-08T01:38:55.186Z,2.90
2023-03-08T01:41:29.760Z,2.90
2023-03-08T01:43:57.269Z,5.20
2023-03-08T01:46:35.994Z,2.90
2023-03-08T01:49:12.405Z,2.90
2023-03-08T01:52:02.784Z,2.90
2023-03-08T01:54:41.549Z,2.90
2023-03-08T01:57:23.873Z,2.90
2023-03-08T01:59:54.787Z,2.80
2023-03-08T02:02:28.449Z,2.80
2023-03-08T02:04:55.762Z,2.80
2023-03-08T02:07:22.681Z,2.90
2023-03-08T02:09:50.432Z,2.80
2023-03-08T02:12:17.654Z,2.80
2023-03-08T02:14:45.300Z,2.80
2023-03-08T02:17:12.813Z,2.80
2023-03-08T02:19:54.313Z,2.80
2023-03-08T02:22:21.832Z,2.80
2023-03-08T02:24:48.960Z,2.90
2023-03-08T02:27:24.889Z,2.80
2023-03-08T02:29:52.730Z,2.80
2023-03-08T02:32:20.348Z,2.70
2023-03-08T02:34:47.187Z,5.50
2023-03-08T02:37:14.187Z,5.70
2023-03-08T02:39:41.181Z,2.90
2023-03-08T02:42:08.247Z,2.80
2023-03-08T02:44:35.185Z,2.80
2023-03-08T02:47:02.206Z,2.80
2023-03-08T02:49:29.128Z,2.80
2023-03-08T02:51:56.007Z,2.80
2023-03-08T02:54:22.939Z,2.80
2023-03-08T02:56:49.881Z,2.80
2023-03-08T02:59:16.857Z,2.80
2023-03-08T03:01:43.838Z,2.70
2023-03-08T03:04:10.745Z,6.10
2023-03-08T03:06:37.706Z,2.80
2023-03-08T03:09:11.345Z,2.80
2023-03-08T03:11:41.077Z,2.70
2023-03-08T03:14:08.333Z,2.70
2023-03-08T03:16:36.748Z,2.80
2023-03-08T03:19:04.237Z,2.80
2023-03-08T03:21:31.287Z,2.80
2023-03-08T03:23:58.175Z,4.50
2023-03-08T03:26:25.640Z,2.70
2023-03-08T03:28:52.888Z,2.80
2023-03-08T03:31:22.890Z,2.70
2023-03-08T03:33:51.316Z,2.80
2023-03-08T03:36:21.910Z,2.80
2023-03-08T03:38:49.909Z,2.80
2023-03-08T03:41:23.696Z,2.80
2023-03-08T03:43:51.544Z,2.70
2023-03-08T03:46:20.847Z,2.70
2023-03-08T03:48:48.025Z,2.80
2023-03-08T03:51:18.569Z,2.80
2023-03-08T03:53:46.335Z,2.80
2023-03-08T03:56:25.332Z,2.70
2023-03-08T03:58:53.271Z,4.80
2023-03-08T04:01:27.337Z,2.70
2023-03-08T04:03:55.812Z,2.70
2023-03-08T04:06:31.659Z,2.70
2023-03-08T04:09:05.816Z,4.50
2023-03-08T04:11:37.415Z,2.60
2023-03-08T04:14:05.422Z,2.60
2023-03-08T04:16:36.714Z,2.60
2023-03-08T04:19:08.614Z,2.60
2023-03-08T04:21:36.119Z,2.60
2023-03-08T04:24:03.799Z,2.70
2023-03-08T04:26:30.822Z,2.70
2023-03-08T04:28:57.869Z,2.60
2023-03-08T04:31:29.474Z,2.60
2023-03-08T04:33:58.255Z,5.20
2023-03-08T04:36:25.571Z,2.60
2023-03-08T04:38:52.647Z,2.50
2023-03-08T04:41:20.191Z,2.80
2023-03-08T04:43:49.222Z,2.60
2023-03-08T04:46:19.213Z,2.60
2023-03-08T04:48:46.157Z,2.60
2023-03-08T04:51:16.275Z,2.60
2023-03-08T04:53:45.289Z,2.60
2023-03-08T04:56:14.623Z,2.60
2023-03-08T04:58:42.668Z,2.60
2023-03-08T05:01:16.719Z,2.60
2023-03-08T05:03:44.564Z,2.60
2023-03-08T05:06:14.148Z,2.60
2023-03-08T05:08:41.493Z,2.60
2023-03-08T05:11:08.996Z,2.60
2023-03-08T05:13:39.018Z,2.60
2023-03-08T05:16:08.079Z,2.60
2023-03-08T05:18:35.591Z,2.60
2023-03-08T05:21:10.477Z,2.60
2023-03-08T05:23:37.781Z,2.60
2023-03-08T05:26:06.858Z,2.60
2023-03-08T05:28:37.019Z,2.60
2023-03-08T05:31:19.803Z,2.60
2023-03-08T05:33:50.923Z,2.60
2023-03-08T05:36:18.805Z,3.40
2023-03-08T05:38:45.952Z,2.50
2023-03-08T05:41:15.981Z,2.60
2023-03-08T05:43:43.618Z,2.60
2023-03-08T05:46:18.632Z,3.50
2023-03-08T05:48:45.825Z,2.60
2023-03-08T05:51:16.675Z,2.50
2023-03-08T05:53:44.022Z,2.60
2023-03-08T05:56:19.327Z,2.60
2023-03-08T05:58:48.173Z,2.60
2023-03-08T06:01:25.121Z,2.60
2023-03-08T06:03:55.848Z,2.60
2023-03-08T06:06:26.239Z,2.60
2023-03-08T06:08:54.011Z,2.50
2023-03-08T06:11:20.924Z,2.50
2023-03-08T06:13:48.068Z,2.70
2023-03-08T06:16:15.121Z,2.80
2023-03-08T06:18:43.119Z,2.70
2023-03-08T06:21:16.523Z,5.70
2023-03-08T06:23:45.613Z,2.80
2023-03-08T06:26:13.202Z,2.90
2023-03-08T06:28:40.629Z,2.90
2023-03-08T06:31:09.389Z,2.90
2023-03-08T06:33:36.309Z,5.20
2023-03-08T06:36:09.260Z,5.80
2023-03-08T06:38:38.913Z,2.90
2023-03-08T06:41:07.872Z,3.00
2023-03-08T06:43:35.885Z,6.00
2023-03-08T06:46:09.603Z,2.90
2023-03-08T06:48:37.846Z,3.00
2023-03-08T06:51:06.116Z,3.10
2023-03-08T06:53:36.245Z,3.10
2023-03-08T06:56:03.873Z,5.70
2023-03-08T06:58:31.652Z,3.20
2023-03-08T07:01:04.236Z,3.10
2023-03-08T07:03:31.473Z,3.20
2023-03-08T07:06:05.053Z,3.20
2023-03-08T07:08:32.507Z,3.20
2023-03-08T07:11:00.027Z,3.30
2023-03-08T07:13:28.953Z,3.30
2023-03-08T07:15:57.069Z,3.40
2023-03-08T07:18:24.528Z,3.50
2023-03-08T07:20:56.660Z,3.60
2023-03-08T07:23:24.157Z,3.70
2023-03-08T07:25:51.239Z,3.90
2023-03-08T07:28:18.149Z,5.70
2023-03-08T07:30:50.453Z,3.80
2023-03-08T07:33:18.994Z,5.50
2023-03-08T07:35:46.210Z,6.30
2023-03-08T07:38:13.580Z,4.00
2023-03-08T07:40:40.551Z,4.20
2023-03-08T07:43:08.249Z,4.30
2023-03-08T07:45:35.434Z,4.50
2023-03-08T07:48:02.466Z,4.60
2023-03-08T07:50:29.745Z,4.70
2023-03-08T07:52:56.734Z,4.90
2023-03-08T07:55:25.483Z,5.00
2023-03-08T07:57:52.629Z,5.10
2023-03-08T08:00:20.413Z,5.20
2023-03-08T08:02:48.118Z,5.30
2023-03-08T08:05:15.423Z,6.60
2023-03-08T08:07:42.347Z,5.40
2023-03-08T08:10:10.167Z,5.40
2023-03-08T08:12:37.330Z,5.50
2023-03-08T08:15:04.766Z,7.90
2023-03-08T08:17:31.778Z,5.50
2023-03-08T08:19:59.664Z,8.10
2023-03-08T08:22:26.576Z,5.50
2023-03-08T08:24:53.518Z,5.60
2023-03-08T08:27:20.581Z,6.80
2023-03-08T08:29:49.573Z,5.60
2023-03-08T08:32:16.533Z,5.60
2023-03-08T08:34:43.566Z,5.70
2023-03-08T08:37:11.140Z,5.70
2023-03-08T08:39:38.672Z,5.80
2023-03-08T08:42:05.855Z,5.70
2023-03-08T08:44:32.833Z,5.70
2023-03-08T08:46:59.819Z,5.60
2023-03-08T08:49:26.750Z,7.70
2023-03-08T08:51:53.711Z,5.70
2023-03-08T08:54:20.773Z,6.00
2023-03-08T08:56:47.870Z,6.10
2023-03-08T08:59:16.370Z,8.40
2023-03-08T09:01:47.071Z,6.40
2023-03-08T09:04:16.653Z,8.80
2023-03-08T09:06:43.891Z,6.70
2023-03-08T09:09:10.936Z,7.60
2023-03-08T09:11:53.302Z,9.40
2023-03-08T09:14:21.622Z,8.60
2023-03-08T09:16:48.690Z,7.00
2023-03-08T09:19:15.732Z,9.20
2023-03-08T09:21:43.006Z,9.50
2023-03-08T09:24:12.138Z,7.30
2023-03-08T09:26:39.229Z,7.30
2023-03-08T09:29:07.477Z,8.90
2023-03-08T09:31:37.702Z,8.40
2023-03-08T09:34:09.323Z,7.90
2023-03-08T09:36:39.535Z,8.10
2023-03-08T09:39:09.192Z,8.20
2023-03-08T09:41:48.268Z,9.50
2023-03-08T09:44:51.610Z,8.70
2023-03-08T09:47:42.796Z,8.90
2023-03-08T09:50:35.886Z,9.10
2023-03-08T09:53:36.954Z,9.30
2023-03-08T09:56:17.073Z,9.50
2023-03-08T09:59:07.084Z,9.70
2023-03-08T10:02:24.421Z,9.90
2023-03-08T10:05:25.434Z,10.10
2023-03-08T10:08:01.269Z,10.20
2023-03-08T10:11:04.182Z,10.30
2023-03-08T10:13:40.769Z,10.30
2023-03-08T10:16:20.847Z,11.80
2023-03-08T10:19:05.950Z,10.50
2023-03-08T10:21:38.103Z,10.70
2023-03-08T10:24:29.389Z,12.90
2023-03-08T10:27:23.690Z,11.00
2023-03-08T10:29:53.700Z,11.20
2023-03-08T10:32:22.090Z,12.40
2023-03-08T10:34:49.306Z,13.00
2023-03-08T10:37:17.089Z,13.50
2023-03-08T10:39:54.801Z,13.20
2023-03-08T10:42:25.494Z,11.40
2023-03-08T10:45:00.393Z,11.40
2023-03-08T10:47:36.746Z,11.20
2023-03-08T10:50:14.351Z,12.60
2023-03-08T10:52:42.125Z,11.20
2023-03-08T10:55:15.297Z,13.00
2023-03-08T10:57:55.702Z,11.30
2023-03-08T11:00:33.415Z,11.50
2023-03-08T11:03:13.683Z,12.50
2023-03-08T11:05:57.865Z,11.20
2023-03-08T11:08:38.790Z,11.80
2023-03-08T11:11:14.808Z,11.40
2023-03-08T11:13:47.675Z,11.70
2023-03-08T11:16:46.406Z,12.00
2023-03-08T11:19:40.444Z,11.60
2023-03-08T11:22:45.020Z,11.50
2023-03-08T11:25:39.662Z,11.40
2023-03-08T11:28:51.044Z,11.40
2023-03-08T11:31:45.860Z,11.30
2023-03-08T11:35:13.945Z,11.30
2023-03-08T11:38:00.125Z,11.00
2023-03-08T11:40:47.420Z,10.70
2023-03-08T11:43:28.011Z,10.40
2023-03-08T11:46:24.743Z,12.60
2023-03-08T11:49:29.741Z,12.10
2023-03-08T11:52:08.240Z,9.90
2023-03-08T11:55:07.869Z,9.70
2023-03-08T11:57:52.355Z,9.60
2023-03-08T12:00:42.036Z,9.50
2023-03-08T12:03:23.197Z,9.40
2023-03-08T12:06:01.852Z,12.00
2023-03-08T12:08:49.427Z,10.90
2023-03-08T12:11:27.398Z,9.40
2023-03-08T12:14:10.727Z,10.60
2023-03-08T12:17:31.729Z,9.40
2023-03-08T12:19:59.007Z,9.30
2023-03-08T12:22:48.308Z,9.20
2023-03-08T12:25:30.997Z,9.10
2023-03-08T12:28:24.380Z,10.60
2023-03-08T12:31:28.716Z,9.10
2023-03-08T12:33:58.805Z,9.10
2023-03-08T12:36:44.196Z,9.00
2023-03-08T12:39:35.961Z,9.10
2023-03-08T12:42:15.895Z,9.10
2023-03-08T12:44:44.518Z,10.80
2023-03-08T12:47:14.429Z,9.40
2023-03-08T12:49:46.107Z,9.30
2023-03-08T12:52:19.418Z,11.60
2023-03-08T12:55:33.950Z,11.20
2023-03-08T12:58:04.244Z,9.30
2023-03-08T13:00:37.467Z,9.20
2023-03-08T13:03:26.579Z,9.20
2023-03-08T13:05:53.530Z,11.70
2023-03-08T13:09:16.152Z,11.80
2023-03-08T13:12:16.477Z,9.10
2023-03-08T13:15:03.375Z,9.10
2023-03-08T13:17:39.458Z,9.10
2023-03-08T13:20:12.350Z,8.90
2023-03-08T13:23:02.290Z,9.00
2023-03-08T13:26:17.155Z,8.90
2023-03-08T13:28:48.419Z,8.90
2023-03-08T13:31:24.930Z,8.90
2023-03-08T13:33:54.674Z,8.80
2023-03-08T13:36:28.801Z,9.30
2023-03-08T13:39:08.645Z,10.30
2023-03-08T13:41:39.262Z,8.70
2023-03-08T13:44:27.756Z,8.70
2023-03-08T13:47:00.919Z,8.60
2023-03-08T13:49:41.317Z,8.60
2023-03-08T13:52:19.447Z,8.60
2023-03-08T13:55:01.820Z,8.60
2023-03-08T13:57:36.669Z,8.60
2023-03-08T14:00:36.477Z,11.70
2023-03-08T14:03:07.446Z,8.70
2023-03-08T14:05:43.977Z,8.70
2023-03-08T14:08:25.054Z,10.80
2023-03-08T14:11:05.584Z,11.10
2023-03-08T14:13:34.155Z,8.70
2023-03-08T14:16:04.472Z,8.80
2023-03-08T14:18:43.395Z,9.10
2023-03-08T14:21:26.651Z,8.70
2023-03-08T14:24:00.980Z,8.70
2023-03-08T14:26:41.313Z,8.60
2023-03-08T14:29:22.201Z,8.50
2023-03-08T14:31:59.167Z,8.50
2023-03-08T14:34:34.003Z,8.50
2023-03-08T14:37:19.383Z,8.50
2023-03-08T14:39:50.161Z,8.50
2023-03-08T14:42:32.701Z,8.40
2023-03-08T14:45:04.992Z,8.40
2023-03-08T14:47:34.446Z,8.40
2023-03-08T14:50:07.390Z,8.30
2023-03-08T14:52:46.821Z,8.60
2023-03-08T14:55:43.146Z,8.30
2023-03-08T14:58:13.634Z,9.10
2023-03-08T15:00:52.757Z,11.00
2023-03-08T15:03:19.725Z,10.40
2023-03-08T15:05:46.785Z,8.20
2023-03-08T15:08:16.510Z,8.20
2023-03-08T15:10:44.393Z,8.20
2023-03-08T15:13:21.134Z,10.70
2023-03-08T15:15:49.285Z,9.30
2023-03-08T15:18:16.946Z,10.20
2023-03-08T15:20:49.615Z,8.90
2023-03-08T15:23:27.806Z,10.10
2023-03-08T15:25:54.988Z,8.10
2023-03-08T15:28:24.038Z,10.90
2023-03-08T15:30:52.953Z,10.90
2023-03-08T15:33:23.285Z,8.10
2023-03-08T15:35:51.256Z,8.00
2023-03-08T15:38:19.306Z,8.00
2023-03-08T15:40:46.208Z,10.70
2023-03-08T15:43:13.193Z,8.00
2023-03-08T15:45:40.907Z,9.80
2023-03-08T15:48:14.607Z,8.00
2023-03-08T15:50:42.988Z,8.10
2023-03-08T15:53:11.304Z,8.00
2023-03-08T15:55:39.655Z,10.60
2023-03-08T15:58:08.920Z,9.60
2023-03-08T16:00:36.604Z,10.00
2023-03-08T16:03:03.821Z,8.00
2023-03-08T16:05:31.719Z,10.40
2023-03-08T16:08:03.609Z,10.90
2023-03-08T16:10:40.640Z,8.00
2023-03-08T16:13:08.141Z,7.90
2023-03-08T16:15:35.155Z,7.90
2023-03-08T16:18:02.064Z,7.90
2023-03-08T16:20:29.043Z,7.90
2023-03-08T16:22:56.256Z,7.80
2023-03-08T16:25:23.448Z,7.80
2023-03-08T16:27:50.442Z,7.80
2023-03-08T16:30:17.566Z,7.80
2023-03-08T16:32:44.617Z,7.80
2023-03-08T16:35:12.951Z,10.70
2023-03-08T16:37:39.889Z,7.70
2023-03-08T16:40:07.964Z,10.50
2023-03-08T16:42:35.061Z,7.70
2023-03-08T16:45:02.207Z,7.70
2023-03-08T16:47:32.372Z,7.70
2023-03-08T16:50:01.039Z,10.60
2023-03-08T16:52:28.565Z,7.60
2023-03-08T16:54:57.181Z,7.60
2023-03-08T16:57:24.281Z,8.70
2023-03-08T16:59:51.277Z,7.50
2023-03-08T17:02:21.635Z,7.50
2023-03-08T17:04:49.734Z,9.70
2023-03-08T17:07:17.711Z,7.40
2023-03-08T17:09:46.364Z,8.80
2023-03-08T17:12:13.518Z,9.00
2023-03-08T17:14:41.165Z,7.20
2023-03-08T17:17:10.276Z,8.20
2023-03-08T17:19:39.728Z,7.10
2023-03-08T17:22:08.598Z,9.20
2023-03-08T17:24:35.541Z,7.00
2023-03-08T17:27:02.684Z,7.00
2023-03-08T17:29:29.792Z,7.00
2023-03-08T17:31:56.848Z,6.90
2023-03-08T17:34:24.225Z,8.30
2023-03-08T17:36:51.824Z,6.90
2023-03-08T17:39:19.929Z,7.50
2023-03-08T17:41:47.297Z,6.70
2023-03-08T17:44:14.555Z,8.20
2023-03-08T17:46:41.639Z,9.20
2023-03-08T17:49:08.728Z,7.20
2023-03-08T17:51:35.644Z,6.60
2023-03-08T17:54:03.280Z,9.50
2023-03-08T17:56:32.155Z,8.70
2023-03-08T17:59:01.398Z,8.20
2023-03-08T18:01:30.833Z,6.50
2023-03-08T18:03:58.195Z,6.50
2023-03-08T18:06:35.943Z,6.40
2023-03-08T18:09:15.665Z,6.50
2023-03-08T18:11:43.189Z,6.40
2023-03-08T18:14:13.785Z,6.40
2023-03-08T18:16:42.513Z,9.10
2023-03-08T18:19:10.812Z,6.30
2023-03-08T18:21:40.896Z,6.20
2023-03-08T18:24:12.178Z,6.20
2023-03-08T18:26:39.404Z,8.80
2023-03-08T18:29:06.314Z,6.10
2023-03-08T18:31:35.098Z,8.20
2023-03-08T18:34:02.903Z,6.10
2023-03-08T18:36:29.846Z,9.00
2023-03-08T18:38:57.039Z,6.00
2023-03-08T18:41:29.515Z,8.10
2023-03-08T18:43:58.310Z,5.90
2023-03-08T18:46:29.220Z,6.50
2023-03-08T18:49:01.002Z,8.30
2023-03-08T18:51:29.385Z,5.90
2023-03-08T18:53:57.881Z,7.40
2023-03-08T18:56:26.919Z,5.90
2023-03-08T18:59:00.537Z,5.90
2023-03-08T19:01:30.319Z,5.90
2023-03-08T19:04:00.534Z,8.80
2023-03-08T19:06:27.782Z,7.50
2023-03-08T19:08:54.832Z,5.70
2023-03-08T19:11:25.840Z,9.20
2023-03-08T19:13:53.116Z,5.60
2023-03-08T19:16:31.518Z,5.60
2023-03-08T19:19:04.425Z,7.90
2023-03-08T19:21:43.164Z,5.70
2023-03-08T19:24:13.480Z,5.60
2023-03-08T19:26:42.997Z,8.40
2023-03-08T19:29:27.486Z,5.60
2023-03-08T19:31:55.864Z,7.90
2023-03-08T19:34:33.526Z,5.50
2023-03-08T19:37:01.467Z,5.50
2023-03-08T19:39:31.940Z,5.50
2023-03-08T19:42:02.832Z,5.40
2023-03-08T19:44:30.966Z,5.40
2023-03-08T19:46:58.056Z,6.50
2023-03-08T19:49:31.063Z,5.40
2023-03-08T19:52:01.408Z,7.90
2023-03-08T19:54:29.671Z,6.80
2023-03-08T19:56:58.150Z,5.30
2023-03-08T19:59:25.913Z,5.40
2023-03-08T20:01:54.888Z,5.40
2023-03-08T20:04:22.830Z,5.30
2023-03-08T20:06:51.215Z,5.30
2023-03-08T20:09:24.052Z,6.20
2023-03-08T20:11:57.381Z,6.60
2023-03-08T20:14:27.272Z,5.40
2023-03-08T20:16:55.440Z,7.30
2023-03-08T20:19:22.708Z,5.40
2023-03-08T20:21:49.762Z,5.40
2023-03-08T20:24:18.967Z,8.20
2023-03-08T20:26:46.445Z,7.70
2023-03-08T20:29:13.808Z,5.30
2023-03-08T20:31:42.257Z,5.30
2023-03-08T20:34:09.495Z,5.90
2023-03-08T20:36:37.669Z,5.20
2023-03-08T20:39:08.957Z,5.30
2023-03-08T20:41:36.100Z,5.30
2023-03-08T20:44:03.254Z,6.90
2023-03-08T20:46:33.202Z,7.20
2023-03-08T20:49:01.131Z,5.30
2023-03-08T20:51:28.558Z,5.30
2023-03-08T20:53:56.328Z,5.30
2023-03-08T20:56:25.288Z,7.80
2023-03-08T20:58:54.906Z,5.30
2023-03-08T21:01:26.396Z,5.20
2023-03-08T21:03:53.408Z,5.30
2023-03-08T21:06:24.441Z,5.20
2023-03-08T21:08:53.420Z,5.20
2023-03-08T21:11:21.731Z,5.10
2023-03-08T21:13:51.004Z,5.00
2023-03-08T21:16:21.316Z,8.40
2023-03-08T21:18:57.730Z,8.00
2023-03-08T21:21:30.379Z,5.10
2023-03-08T21:23:59.897Z,5.10
2023-03-08T21:26:28.717Z,5.10
2023-03-08T21:29:01.800Z,8.10
2023-03-08T21:31:31.386Z,5.00
2023-03-08T21:33:59.067Z,5.10
2023-03-08T21:36:26.015Z,5.60
2023-03-08T21:38:55.272Z,5.10
2023-03-08T21:41:31.801Z,5.10
2023-03-08T21:44:02.059Z,5.10
2023-03-08T21:46:29.346Z,7.30
2023-03-08T21:48:57.107Z,5.10
2023-03-08T21:51:24.563Z,5.10
2023-03-08T21:53:51.489Z,7.40
2023-03-08T21:56:19.609Z,5.00
2023-03-08T21:58:46.518Z,5.00
2023-03-08T22:01:26.809Z,5.00
2023-03-08T22:03:54.579Z,7.20
2023-03-08T22:06:23.504Z,6.70
2023-03-08T22:08:51.093Z,5.00
2023-03-08T22:11:20.208Z,5.00
2023-03-08T22:13:59.594Z,7.10
2023-03-08T22:16:29.088Z,5.00
2023-03-08T22:18:59.320Z,4.90
2023-03-08T22:21:28.027Z,4.90
2023-03-08T22:23:58.397Z,4.90
2023-03-08T22:26:28.163Z,5.40
2023-03-08T22:28:56.289Z,4.90
2023-03-08T22:31:25.932Z,4.90
2023-03-08T22:33:53.060Z,4.80
2023-03-08T22:36:21.441Z,4.90
2023-03-08T22:38:48.467Z,7.50
2023-03-08T22:41:24.853Z,4.90
2023-03-08T22:43:53.002Z,4.80
2023-03-08T22:46:24.777Z,4.80
2023-03-08T22:48:52.737Z,7.50
2023-03-08T22:51:22.020Z,4.90
2023-03-08T22:53:49.977Z,4.90
2023-03-08T22:56:29.493Z,4.90
2023-03-08T22:58:57.704Z,4.90
2023-03-08T23:01:25.527Z,4.80
2023-03-08T23:03:59.463Z,4.90
2023-03-08T23:06:28.661Z,6.60
2023-03-08T23:09:01.514Z,4.90
2023-03-08T23:11:29.169Z,4.80
2023-03-08T23:13:56.279Z,4.90
2023-03-08T23:16:23.348Z,7.20
2023-03-08T23:18:52.108Z,4.90
2023-03-08T23:21:22.746Z,4.80
2023-03-08T23:23:49.673Z,5.10
2023-03-08T23:26:21.262Z,2.90
2023-03-08T23:28:48.252Z,4.90
2023-03-08T23:31:19.012Z,4.90
2023-03-08T23:33:46.501Z,4.80
2023-03-08T23:36:17.332Z,4.80
2023-03-08T23:38:44.807Z,6.90
2023-03-08T23:41:13.653Z,6.40
2023-03-08T23:43:41.593Z,4.70
2023-03-08T23:46:15.778Z,4.80
2023-03-08T23:48:44.561Z,4.80
2023-03-08T23:51:16.035Z,7.40
2023-03-08T23:53:42.953Z,4.80
2023-03-08T23:56:26.613Z,7.60
2023-03-08T23:58:56.084Z,4.80
